Time;durP1;ratioP1;P1;durP2;ratioP2;P2;SDS_P1;SDS_P2;PMS_P1;PMS_P2;Temp;Humidity;BMP_temperature;BMP_pressure;BME280_temperature;BME280_humidity;BME280_pressure;Samples;Min_cycle;Max_cycle;Signal;HPM_P1;HPM_P2
2022/09/08 00:00:38;;;;;;;10.23;8.40;;;;;;;;;;10128476;29;20501;-80
2022/09/08 00:05:45;;;;;;;10.25;8.13;;;;;;;;;;10126834;29;20423;-79
2022/09/08 00:10:50;;;;;;;8.90;8.00;;;;;;;;;;10126580;29;20413;-80
2022/09/08 00:15:52;;;;;;;10.25;8.02;;;;;;;;;;10124356;29;20496;-79
2022/09/08 00:20:54;;;;;;;10.30;8.30;;;;;;;;;;10126353;29;20877;-79
2022/09/08 00:25:57;;;;;;;10.57;8.10;;;;;;;;;;10127111;29;20508;-77
2022/09/08 00:30:59;;;;;;;11.30;8.63;;;;;;;;;;10103466;29;20518;-80
2022/09/08 00:36:03;;;;;;;12.10;9.13;;;;;;;;;;10091088;29;20836;-80
2022/09/08 00:41:11;;;;;;;10.98;8.82;;;;;;;;;;10090875;29;20413;-79
2022/09/08 00:46:24;;;;;;;12.63;9.60;;;;;;;;;;10098260;29;20425;-80
2022/09/08 00:51:28;;;;;;;10.88;9.15;;;;;;;;;;10102975;29;20500;-80
2022/09/08 00:56:31;;;;;;;11.83;8.80;;;;;;;;;;10114945;29;20421;-79
2022/09/08 01:01:34;;;;;;;10.90;8.40;;;;;;;;;;10104980;29;20443;-79
2022/09/08 01:17:30;;;;;;;11.60;7.93;;;;;;;;;;10125551;29;20397;-79
2022/09/08 01:22:50;;;;;;;9.27;7.80;;;;;;;;;;10114321;29;20433;-79
2022/09/08 01:28:00;;;;;;;10.13;7.90;;;;;;;;;;10126353;29;20499;-79
2022/09/08 01:33:03;;;;;;;8.85;7.95;;;;;;;;;;10115257;29;20813;-81
2022/09/08 01:38:05;;;;;;;9.38;7.93;;;;;;;;;;10114111;29;20888;-80
2022/09/08 01:43:10;;;;;;;9.20;7.90;;;;;;;;;;10114125;29;21122;-80
2022/09/08 01:48:11;;;;;;;10.70;8.00;;;;;;;;;;10125145;29;20852;-80
2022/09/08 01:53:13;;;;;;;10.00;7.80;;;;;;;;;;10125689;29;20859;-79
2022/09/08 01:58:16;;;;;;;9.77;8.50;;;;;;;;;;10124334;29;20504;-80
2022/09/08 02:03:19;;;;;;;9.82;8.68;;;;;;;;;;10123276;29;20517;-80
2022/09/08 02:08:21;;;;;;;9.52;8.52;;;;;;;;;;10128967;29;20510;-80
2022/09/08 02:13:24;;;;;;;9.70;8.38;;;;;;;;;;10133212;29;20442;-80
2022/09/08 02:18:29;;;;;;;12.53;9.20;;;;;;;;;;10132771;29;20957;-80
2022/09/08 02:23:31;;;;;;;10.47;8.90;;;;;;;;;;10132326;29;20490;-79
2022/09/08 02:28:34;;;;;;;13.53;10.40;;;;;;;;;;10133476;29;20909;-79
2022/09/08 02:33:36;;;;;;;11.50;10.30;;;;;;;;;;10133835;29;20924;-78
2022/09/08 02:38:38;;;;;;;12.43;10.55;;;;;;;;;;10129155;29;20410;-79
2022/09/08 02:43:42;;;;;;;12.73;9.68;;;;;;;;;;10127141;29;20437;-80
2022/09/08 02:48:43;;;;;;;12.55;10.18;;;;;;;;;;10134445;29;20459;-79
2022/09/08 02:53:46;;;;;;;12.88;10.20;;;;;;;;;;10133789;29;20541;-79
2022/09/08 02:58:49;;;;;;;13.13;9.18;;;;;;;;;;10133275;29;20502;-79
2022/09/08 03:03:51;;;;;;;15.00;10.00;;;;;;;;;;10132255;29;20536;-79
2022/09/08 03:08:53;;;;;;;13.38;10.40;;;;;;;;;;10120082;29;20500;-79
2022/09/08 03:13:56;;;;;;;13.77;10.57;;;;;;;;;;10131201;29;20413;-80
2022/09/08 03:18:58;;;;;;;13.07;11.10;;;;;;;;;;10130106;29;20502;-80
2022/09/08 03:24:00;;;;;;;14.60;11.48;;;;;;;;;;10131033;29;20441;-79
2022/09/08 03:29:06;;;;;;;14.17;10.83;;;;;;;;;;10130814;29;20473;-79
2022/09/08 03:34:07;;;;;;;12.82;10.45;;;;;;;;;;10129896;29;20835;-80
2022/09/08 03:39:09;;;;;;;14.70;10.33;;;;;;;;;;10129616;29;20413;-80
2022/09/08 03:44:12;;;;;;;13.63;11.17;;;;;;;;;;10121286;29;20449;-79
2022/09/08 03:49:14;;;;;;;12.57;11.07;;;;;;;;;;10132916;29;20500;-80
2022/09/08 03:59:37;;;;;;;14.32;11.45;;;;;;;;;;10132045;29;20393;-80
2022/09/08 04:04:39;;;;;;;15.60;11.27;;;;;;;;;;10132124;29;20512;-80
2022/09/08 04:09:42;;;;;;;14.60;11.47;;;;;;;;;;10119907;29;20424;-80
2022/09/08 04:14:48;;;;;;;14.30;12.00;;;;;;;;;;10110681;29;20451;-80
2022/09/08 04:19:51;;;;;;;17.75;12.68;;;;;;;;;;10129664;29;20413;-79
2022/09/08 04:24:53;;;;;;;15.38;12.00;;;;;;;;;;10118422;29;20441;-80
2022/09/08 04:29:56;;;;;;;15.70;12.73;;;;;;;;;;10118394;29;20417;-80
2022/09/08 04:34:58;;;;;;;15.05;11.38;;;;;;;;;;10130032;29;20419;-80
2022/09/08 04:39:59;;;;;;;13.07;10.35;;;;;;;;;;10115895;29;20421;-80
2022/09/08 04:45:03;;;;;;;15.05;10.32;;;;;;;;;;10093052;29;20438;-80
2022/09/08 04:50:05;;;;;;;12.43;9.60;;;;;;;;;;10097018;29;20585;-80
2022/09/08 04:55:10;;;;;;;10.20;8.02;;;;;;;;;;10112601;29;20414;-80
2022/09/08 05:00:14;;;;;;;10.02;7.80;;;;;;;;;;10112135;29;20425;-80
2022/09/08 05:05:16;;;;;;;12.00;8.20;;;;;;;;;;10129270;29;20476;-80
2022/09/08 05:10:18;;;;;;;8.93;7.70;;;;;;;;;;10128671;29;20505;-80
2022/09/08 05:15:22;;;;;;;10.65;7.57;;;;;;;;;;10128253;29;20496;-80
2022/09/08 05:20:24;;;;;;;10.18;7.80;;;;;;;;;;10126215;29;20784;-80
2022/09/08 05:25:26;;;;;;;11.20;7.15;;;;;;;;;;10125997;29;20445;-80
2022/09/08 05:30:29;;;;;;;9.18;6.57;;;;;;;;;;10126401;29;20501;-81
2022/09/08 05:35:31;;;;;;;10.83;6.90;;;;;;;;;;10125279;29;20417;-80
2022/09/08 05:40:35;;;;;;;9.27;6.70;;;;;;;;;;10126787;29;20769;-79
2022/09/08 05:45:38;;;;;;;8.50;6.38;;;;;;;;;;10135439;29;20441;-79
2022/09/08 05:50:42;;;;;;;8.43;5.28;;;;;;;;;;10135985;29;20447;-80
2022/09/08 05:55:55;;;;;;;10.93;7.38;;;;;;;;;;10135877;29;20511;-79
2022/09/08 06:01:00;;;;;;;8.07;5.67;;;;;;;;;;10133990;29;20421;-78
2022/09/08 06:06:04;;;;;;;5.72;4.22;;;;;;;;;;10133860;29;20502;-79
2022/09/08 06:11:07;;;;;;;4.93;3.97;;;;;;;;;;10133777;29;20488;-79
2022/09/08 06:16:11;;;;;;;10.38;4.18;;;;;;;;;;10126023;29;20437;-78
2022/09/08 06:21:15;;;;;;;12.93;5.55;;;;;;;;;;10125800;29;20416;-80
2022/09/08 06:26:34;;;;;;;5.97;4.20;;;;;;;;;;10132420;29;20447;-80
2022/09/08 06:31:45;;;;;;;7.28;4.10;;;;;;;;;;10128836;29;20497;-80
2022/09/08 06:36:50;;;;;;;5.67;4.30;;;;;;;;;;10130950;29;20409;-80
2022/09/08 06:41:57;;;;;;;6.45;4.78;;;;;;;;;;10132105;29;20502;-79
2022/09/08 06:47:01;;;;;;;5.23;4.63;;;;;;;;;;10096969;29;20431;-80
2022/09/08 06:52:14;;;;;;;6.70;4.70;;;;;;;;;;10116300;29;20409;-80
2022/09/08 06:57:29;;;;;;;6.32;4.68;;;;;;;;;;10133446;29;20424;-79
2022/09/08 07:03:07;;;;;;;8.63;4.53;;;;;;;;;;10130669;29;20512;-79
2022/09/08 07:08:20;;;;;;;6.57;4.40;;;;;;;;;;10082795;29;20496;-79
2022/09/08 07:13:32;;;;;;;6.93;4.38;;;;;;;;;;10130419;29;20504;-79
2022/09/08 07:18:41;;;;;;;5.25;4.00;;;;;;;;;;10128983;29;20819;-80
2022/09/08 07:23:44;;;;;;;4.93;3.90;;;;;;;;;;10118667;29;20438;-79
2022/09/08 07:28:51;;;;;;;5.28;3.63;;;;;;;;;;10128716;29;20496;-79
2022/09/08 07:33:59;;;;;;;5.93;3.70;;;;;;;;;;10127330;29;20444;-79
2022/09/08 07:39:10;;;;;;;6.93;3.85;;;;;;;;;;10127467;29;20413;-80
2022/09/08 07:44:15;;;;;;;6.68;4.07;;;;;;;;;;10132529;29;20534;-80
2022/09/08 07:49:25;;;;;;;5.55;4.00;;;;;;;;;;10132357;29;20409;-79
2022/09/08 07:54:41;;;;;;;4.18;3.78;;;;;;;;;;10130054;29;20508;-79
2022/09/08 07:59:48;;;;;;;6.28;4.30;;;;;;;;;;10129809;29;20760;-79
2022/09/08 08:05:03;;;;;;;5.55;4.07;;;;;;;;;;10128320;29;20436;-80
2022/09/08 08:10:12;;;;;;;7.97;5.20;;;;;;;;;;10128592;29;20425;-80
2022/09/08 08:15:20;;;;;;;8.82;6.00;;;;;;;;;;10127023;29;20492;-79
2022/09/08 08:20:39;;;;;;;8.55;5.72;;;;;;;;;;10125530;29;20420;-80
2022/09/08 08:25:47;;;;;;;7.63;5.70;;;;;;;;;;10125615;29;20437;-80
2022/09/08 08:30:59;;;;;;;7.18;4.85;;;;;;;;;;10124852;29;20465;-79
2022/09/08 08:36:06;;;;;;;7.50;5.30;;;;;;;;;;10124691;29;20786;-80
2022/09/08 08:41:17;;;;;;;6.35;4.95;;;;;;;;;;10127618;29;20496;-80
2022/09/08 08:46:45;;;;;;;5.97;4.50;;;;;;;;;;10129963;29;20437;-80
2022/09/08 08:52:04;;;;;;;8.02;5.40;;;;;;;;;;10092131;29;20417;-79
2022/09/08 08:57:21;;;;;;;7.43;5.30;;;;;;;;;;10130281;29;20496;-80
2022/09/08 09:02:39;;;;;;;7.28;5.63;;;;;;;;;;10129633;29;20501;-80
2022/09/08 09:08:14;;;;;;;5.63;4.90;;;;;;;;;;10117348;29;20504;-80
2022/09/08 09:13:39;;;;;;;8.65;5.57;;;;;;;;;;10126651;29;20453;-79
2022/09/08 09:19:01;;;;;;;8.23;5.33;;;;;;;;;;10124525;29;20473;-79
2022/09/08 09:24:15;;;;;;;7.40;5.15;;;;;;;;;;10116856;29;20536;-79
2022/09/08 09:29:21;;;;;;;4.10;3.50;;;;;;;;;;10124530;29;20504;-80
2022/09/08 09:34:35;;;;;;;4.32;3.88;;;;;;;;;;10124422;29;20770;-79
2022/09/08 09:40:00;;;;;;;5.87;4.10;;;;;;;;;;10115472;29;20418;-80
2022/09/08 09:45:40;;;;;;;4.65;3.95;;;;;;;;;;10115306;29;20507;-80
2022/09/08 09:50:48;;;;;;;6.32;4.30;;;;;;;;;;10128111;29;20499;-80
2022/09/08 09:56:16;;;;;;;4.22;3.67;;;;;;;;;;10127762;29;20492;-81
2022/09/08 10:01:31;;;;;;;5.15;3.92;;;;;;;;;;10116653;29;20512;-80
2022/09/08 10:07:08;;;;;;;7.15;4.32;;;;;;;;;;10125563;29;20433;-78
2022/09/08 10:12:57;;;;;;;5.47;4.53;;;;;;;;;;10102292;29;20489;-79
2022/09/08 10:18:41;;;;;;;5.27;4.10;;;;;;;;;;10120777;29;20798;-79
2022/09/08 10:24:22;;;;;;;5.20;3.75;;;;;;;;;;10125352;29;20828;-79
2022/09/08 10:30:04;;;;;;;4.07;3.50;;;;;;;;;;10125697;29;20455;-79
2022/09/08 10:35:21;;;;;;;5.38;3.78;;;;;;;;;;10120063;29;20795;-79
2022/09/08 10:40:35;;;;;;;5.60;3.72;;;;;;;;;;10132877;29;20413;-79
2022/09/08 10:45:57;;;;;;;5.25;4.22;;;;;;;;;;10134774;29;20440;-79
2022/09/08 10:51:15;;;;;;;6.88;4.15;;;;;;;;;;10133930;29;20751;-79
2022/09/08 10:56:25;;;;;;;5.43;3.30;;;;;;;;;;10122863;29;20429;-79
2022/09/08 11:01:55;;;;;;;4.93;3.67;;;;;;;;;;10133070;29;20421;-78
2022/09/08 11:07:20;;;;;;;4.72;3.92;;;;;;;;;;10131148;29;20433;-79
2022/09/08 11:12:47;;;;;;;6.13;3.72;;;;;;;;;;10119517;29;20422;-79
2022/09/08 11:17:52;;;;;;;3.80;3.30;;;;;;;;;;10129780;29;20444;-79
2022/09/08 11:23:19;;;;;;;5.47;3.93;;;;;;;;;;10129617;29;20452;-79
2022/09/08 11:28:35;;;;;;;5.88;4.10;;;;;;;;;;10127498;29;20417;-79
2022/09/08 11:33:55;;;;;;;7.57;5.70;;;;;;;;;;10119411;29;20429;-79
2022/09/08 11:39:23;;;;;;;6.53;4.13;;;;;;;;;;10128106;29;20496;-79
2022/09/08 11:44:41;;;;;;;6.77;4.30;;;;;;;;;;10132629;29;20523;-79
2022/09/08 11:50:13;;;;;;;4.68;3.40;;;;;;;;;;10121082;29;20917;-80
2022/09/08 11:55:27;;;;;;;4.88;2.70;;;;;;;;;;10127905;29;20420;-79
2022/09/08 12:00:51;;;;;;;3.80;2.63;;;;;;;;;;10132421;29;20417;-78
2022/09/08 12:06:23;;;;;;;3.55;2.42;;;;;;;;;;10130172;29;20437;-80
2022/09/08 12:11:42;;;;;;;3.80;2.47;;;;;;;;;;10120541;29;20421;-80
2022/09/08 12:16:54;;;;;;;3.50;2.33;;;;;;;;;;10129688;29;20413;-80
2022/09/08 12:22:21;;;;;;;4.53;2.90;;;;;;;;;;10127864;29;20417;-80
2022/09/08 12:27:39;;;;;;;5.77;2.87;;;;;;;;;;10129007;29;20532;-80
2022/09/08 12:33:08;;;;;;;4.90;2.80;;;;;;;;;;10126636;29;20638;-79
2022/09/08 12:38:33;;;;;;;4.70;2.63;;;;;;;;;;10125817;29;20496;-80
2022/09/08 12:43:40;;;;;;;2.67;2.20;;;;;;;;;;10121592;29;20435;-80
2022/09/08 12:48:55;;;;;;;4.13;2.20;;;;;;;;;;10129618;29;20478;-81
2022/09/08 12:54:23;;;;;;;2.95;2.30;;;;;;;;;;10128006;29;20505;-80
2022/09/08 12:59:38;;;;;;;3.60;2.28;;;;;;;;;;10116608;29;20423;-79
2022/09/08 13:04:55;;;;;;;3.47;2.10;;;;;;;;;;10126688;29;20433;-80
2022/09/08 13:10:14;;;;;;;4.27;2.30;;;;;;;;;;10126531;29;20508;-80
2022/09/08 13:15:24;;;;;;;3.05;2.28;;;;;;;;;;10124245;29;20961;-80
2022/09/08 13:20:36;;;;;;;5.38;2.10;;;;;;;;;;10123488;29;20679;-80
2022/09/08 13:25:50;;;;;;;3.38;2.30;;;;;;;;;;10122999;29;20433;-80
2022/09/08 13:31:02;;;;;;;2.92;2.10;;;;;;;;;;10122881;29;20424;-80
2022/09/08 13:36:17;;;;;;;4.07;2.13;;;;;;;;;;10122880;29;20968;-80
2022/09/08 13:41:38;;;;;;;4.35;2.55;;;;;;;;;;10127336;29;20786;-80
2022/09/08 13:46:54;;;;;;;2.50;2.13;;;;;;;;;;10128202;29;20441;-80
2022/09/08 13:52:18;;;;;;;3.73;2.40;;;;;;;;;;10127269;29;20496;-80
2022/09/08 13:57:38;;;;;;;4.20;2.30;;;;;;;;;;10127078;29;20421;-80
2022/09/08 14:02:51;;;;;;;3.00;2.25;;;;;;;;;;10125942;29;20413;-80
2022/09/08 14:07:59;;;;;;;2.22;1.90;;;;;;;;;;10133851;29;20436;-80
2022/09/08 14:13:21;;;;;;;4.22;2.40;;;;;;;;;;10133252;29;20517;-80
2022/09/08 14:18:33;;;;;;;4.35;2.13;;;;;;;;;;10132892;29;20417;-80
2022/09/08 14:24:12;;;;;;;2.85;2.00;;;;;;;;;;10129747;29;20421;-79
2022/09/08 14:29:49;;;;;;;3.33;2.10;;;;;;;;;;10117986;29;20500;-79
2022/09/08 14:35:07;;;;;;;2.50;1.90;;;;;;;;;;10120957;29;20500;-79
2022/09/08 14:40:19;;;;;;;2.40;1.70;;;;;;;;;;10121159;29;20431;-78
2022/09/08 14:45:26;;;;;;;3.22;1.70;;;;;;;;;;10114881;29;20437;-79
2022/09/08 14:51:06;;;;;;;2.40;1.70;;;;;;;;;;10135513;29;20827;-79
2022/09/08 14:56:18;;;;;;;2.88;1.67;;;;;;;;;;10108883;29;20965;-80
2022/09/08 15:01:28;;;;;;;2.35;1.80;;;;;;;;;;10125409;29;20417;-80
2022/09/08 15:06:50;;;;;;;3.28;1.70;;;;;;;;;;10134059;29;20433;-81
2022/09/08 15:11:56;;;;;;;2.58;1.55;;;;;;;;;;10133701;29;20814;-81
2022/09/08 15:17:05;;;;;;;1.97;1.53;;;;;;;;;;10133049;29;20417;-81
2022/09/08 15:22:29;;;;;;;2.80;1.60;;;;;;;;;;10120940;29;20486;-80
2022/09/08 15:27:36;;;;;;;2.50;1.30;;;;;;;;;;10130602;29;20464;-79
2022/09/08 15:32:48;;;;;;;2.38;1.73;;;;;;;;;;10130332;29;20413;-81
2022/09/08 15:37:57;;;;;;;3.75;1.80;;;;;;;;;;10128383;29;20417;-81
2022/09/08 15:43:06;;;;;;;1.60;1.50;;;;;;;;;;10133090;29;20861;-80
2022/09/08 15:48:17;;;;;;;2.10;1.50;;;;;;;;;;10132639;29;20437;-80
2022/09/08 15:53:47;;;;;;;2.93;1.63;;;;;;;;;;10132303;29;20457;-80
2022/09/08 15:59:08;;;;;;;2.40;1.50;;;;;;;;;;10123875;29;20419;-80
2022/09/08 16:04:23;;;;;;;3.25;1.45;;;;;;;;;;10094823;29;20498;-80
2022/09/08 16:09:29;;;;;;;3.30;1.45;;;;;;;;;;10123182;29;20508;-80
2022/09/08 16:14:41;;;;;;;2.47;1.90;;;;;;;;;;10119725;29;20492;-80
2022/09/08 16:19:44;;;;;;;6.28;1.80;;;;;;;;;;10132236;29;20417;-79
2022/09/08 16:24:56;;;;;;;2.20;1.90;;;;;;;;;;10130351;29;20429;-80
2022/09/08 16:30:02;;;;;;;1.60;1.50;;;;;;;;;;10129297;29;20911;-80
2022/09/08 16:35:15;;;;;;;3.17;1.50;;;;;;;;;;10118516;29;20510;-78
2022/09/08 16:40:21;;;;;;;3.33;1.70;;;;;;;;;;10129410;29;20496;-79
2022/09/08 16:45:48;;;;;;;5.25;2.10;;;;;;;;;;10130485;29;20858;-81
2022/09/08 16:51:04;;;;;;;5.55;2.90;;;;;;;;;;10129824;29;20507;-80
2022/09/08 16:56:16;;;;;;;4.63;3.03;;;;;;;;;;10129046;29;20431;-80
2022/09/08 17:01:28;;;;;;;6.72;3.28;;;;;;;;;;10128220;29;20918;-81
2022/09/08 17:06:33;;;;;;;2.80;2.33;;;;;;;;;;10127452;29;20437;-81
2022/09/08 17:11:47;;;;;;;2.92;1.90;;;;;;;;;;10126083;29;20504;-80
2022/09/08 17:17:36;;;;;;;4.13;1.80;;;;;;;;;;10124949;29;20421;-79
2022/09/08 17:23:14;;;;;;;3.65;1.98;;;;;;;;;;10113110;29;20491;-80
2022/09/08 17:29:01;;;;;;;3.05;2.10;;;;;;;;;;10122983;29;20492;-81
2022/09/08 17:34:40;;;;;;;5.28;2.17;;;;;;;;;;10117204;29;20417;-79
2022/09/08 17:39:48;;;;;;;3.47;2.20;;;;;;;;;;10123435;29;20444;-81
2022/09/08 17:45:01;;;;;;;3.65;1.70;;;;;;;;;;10090734;29;20438;-80
2022/09/08 17:50:15;;;;;;;3.38;1.98;;;;;;;;;;10091909;29;20802;-81
2022/09/08 17:55:22;;;;;;;4.40;2.20;;;;;;;;;;10110396;29;20419;-80
2022/09/08 18:00:26;;;;;;;3.60;2.30;;;;;;;;;;10127791;29;20421;-81
2022/09/08 18:05:30;;;;;;;4.10;2.28;;;;;;;;;;10126502;29;20504;-81
2022/09/08 18:10:46;;;;;;;5.10;2.35;;;;;;;;;;10125663;29;20423;-81
2022/09/08 18:15:52;;;;;;;3.83;2.40;;;;;;;;;;10116899;29;20489;-81
2022/09/08 18:20:58;;;;;;;5.20;2.95;;;;;;;;;;10125331;29;20583;-80
2022/09/08 18:26:07;;;;;;;4.55;2.60;;;;;;;;;;10123949;29;20516;-81
2022/09/08 18:31:32;;;;;;;6.80;3.10;;;;;;;;;;10123658;29;20461;-81
2022/09/08 18:36:53;;;;;;;7.03;3.20;;;;;;;;;;10122505;29;20857;-80
2022/09/08 18:42:27;;;;;;;7.10;3.15;;;;;;;;;;10106582;29;20782;-81
2022/09/08 18:48:04;;;;;;;6.20;2.73;;;;;;;;;;10113325;29;20445;-80
2022/09/08 18:53:26;;;;;;;6.80;3.30;;;;;;;;;;10134299;29;20421;-80
2022/09/08 18:58:45;;;;;;;5.00;3.27;;;;;;;;;;10135048;29;20417;-81
2022/09/08 19:03:51;;;;;;;5.35;3.03;;;;;;;;;;10134364;29;20496;-79
2022/09/08 19:08:56;;;;;;;5.28;3.50;;;;;;;;;;10133600;29;20894;-81
2022/09/08 19:14:15;;;;;;;7.57;3.60;;;;;;;;;;10122101;29;20507;-81
2022/09/08 19:19:22;;;;;;;6.15;3.60;;;;;;;;;;10133118;29;20484;-81
2022/09/08 19:24:35;;;;;;;7.47;4.20;;;;;;;;;;10133147;29;20413;-80
2022/09/08 19:29:52;;;;;;;11.45;4.93;;;;;;;;;;10133805;29;20500;-81
2022/09/08 19:35:04;;;;;;;6.50;3.60;;;;;;;;;;10132619;29;20417;-80
2022/09/08 19:40:27;;;;;;;6.13;3.43;;;;;;;;;;10131794;29;20477;-80
2022/09/08 19:45:36;;;;;;;6.40;3.60;;;;;;;;;;10120434;29;20441;-80
2022/09/08 19:50:54;;;;;;;6.38;3.72;;;;;;;;;;10120850;29;20492;-80
2022/09/08 19:56:01;;;;;;;6.35;3.60;;;;;;;;;;10132127;29;20428;-80
2022/09/08 20:01:20;;;;;;;8.43;3.83;;;;;;;;;;10119285;29;20425;-80
2022/09/08 20:06:26;;;;;;;6.77;3.77;;;;;;;;;;10131182;29;20442;-79
2022/09/08 20:11:31;;;;;;;8.93;3.60;;;;;;;;;;10130677;29;20496;-79
2022/09/08 20:16:53;;;;;;;7.03;3.25;;;;;;;;;;10129353;29;20909;-80
2022/09/08 20:21:57;;;;;;;5.50;3.42;;;;;;;;;;10128290;29;20886;-79
2022/09/08 20:27:04;;;;;;;4.63;3.20;;;;;;;;;;10127358;29;20442;-79
2022/09/08 20:32:15;;;;;;;6.37;3.17;;;;;;;;;;10126362;29;20496;-78
2022/09/08 20:37:47;;;;;;;5.53;3.50;;;;;;;;;;10124406;29;20433;-79
2022/09/08 20:42:51;;;;;;;7.27;4.07;;;;;;;;;;10095701;29;20423;-80
2022/09/08 20:48:00;;;;;;;5.07;3.45;;;;;;;;;;10129182;29;20441;-79
2022/09/08 20:53:21;;;;;;;6.18;3.30;;;;;;;;;;10130594;29;20429;-80
2022/09/08 20:58:27;;;;;;;5.15;3.10;;;;;;;;;;10130122;29;20424;-79
2022/09/08 21:03:32;;;;;;;4.47;3.03;;;;;;;;;;10129594;29;20428;-79
2022/09/08 21:08:36;;;;;;;6.25;3.00;;;;;;;;;;10128826;29;20439;-79
2022/09/08 21:13:46;;;;;;;6.33;3.07;;;;;;;;;;10127648;29;20418;-79
2022/09/08 21:18:59;;;;;;;6.18;3.20;;;;;;;;;;10116513;29;20413;-79
2022/09/08 21:24:14;;;;;;;6.10;3.00;;;;;;;;;;10127411;29;20512;-78
2022/09/08 21:29:22;;;;;;;5.40;3.20;;;;;;;;;;10126775;29;20629;-79
2022/09/08 21:34:31;;;;;;;4.93;3.20;;;;;;;;;;10126935;29;20417;-78
2022/09/08 21:39:46;;;;;;;5.50;3.67;;;;;;;;;;10126228;29;20449;-79
2022/09/08 21:44:52;;;;;;;3.83;3.20;;;;;;;;;;10116225;29;20505;-81
2022/09/08 21:50:03;;;;;;;5.80;3.47;;;;;;;;;;10127661;29;20439;-80
2022/09/08 21:55:14;;;;;;;5.07;3.37;;;;;;;;;;10126718;29;20424;-80
2022/09/08 22:00:20;;;;;;;6.43;3.53;;;;;;;;;;10127202;29;20921;-80
2022/09/08 22:05:27;;;;;;;6.50;3.63;;;;;;;;;;10126643;29;20455;-79
2022/09/08 22:10:31;;;;;;;3.90;3.05;;;;;;;;;;10126629;29;20413;-80
2022/09/08 22:15:35;;;;;;;6.80;3.47;;;;;;;;;;10123808;29;20848;-80
2022/09/08 22:20:47;;;;;;;5.00;3.42;;;;;;;;;;10124171;29;20491;-81
2022/09/08 22:26:03;;;;;;;6.53;3.90;;;;;;;;;;10128396;29;21031;-81
2022/09/08 22:31:17;;;;;;;8.00;4.00;;;;;;;;;;10132224;29;20841;-81
2022/09/08 22:36:24;;;;;;;5.70;3.60;;;;;;;;;;10132003;29;20420;-80
2022/09/08 22:41:29;;;;;;;4.20;3.50;;;;;;;;;;10108843;29;20429;-78
2022/09/08 22:46:36;;;;;;;4.97;3.63;;;;;;;;;;10135125;29;20445;-81
2022/09/08 22:51:42;;;;;;;6.50;3.50;;;;;;;;;;10106565;29;20418;-81
2022/09/08 22:56:51;;;;;;;5.97;3.88;;;;;;;;;;10109380;29;20541;-81
2022/09/08 23:01:56;;;;;;;7.53;5.43;;;;;;;;;;10129126;29;20966;-81
2022/09/08 23:07:16;;;;;;;8.50;4.65;;;;;;;;;;10133947;29;20515;-81
2022/09/08 23:12:29;;;;;;;6.87;4.90;;;;;;;;;;10131761;29;20417;-81
2022/09/08 23:17:48;;;;;;;7.63;4.70;;;;;;;;;;10132738;29;20504;-81
2022/09/08 23:23:04;;;;;;;5.68;4.32;;;;;;;;;;10130335;29;20413;-80
2022/09/08 23:28:22;;;;;;;6.75;4.60;;;;;;;;;;10129709;29;20500;-80
2022/09/08 23:33:28;;;;;;;6.18;4.18;;;;;;;;;;10127358;29;20465;-80
2022/09/08 23:38:30;;;;;;;6.43;5.20;;;;;;;;;;10124846;29;20428;-80
2022/09/08 23:43:37;;;;;;;8.03;5.07;;;;;;;;;;10107845;29;20494;-80
2022/09/08 23:48:42;;;;;;;6.03;5.00;;;;;;;;;;10119907;29;20477;-81
2022/09/08 23:53:47;;;;;;;7.93;4.72;;;;;;;;;;10095061;29;20978;-80
2022/09/08 23:58:51;;;;;;;7.70;4.30;;;;;;;;;;10095472;29;20419;-79
